Time;durP1;ratioP1;P1;durP2;ratioP2;P2;SDS_P1;SDS_P2;PMS_P1;PMS_P2;Temp;Humidity;BMP_temperature;BMP_pressure;BME280_temperature;BME280_humidity;BME280_pressure;Samples;Min_cycle;Max_cycle;Signal;HPM_P1;HPM_P2
2024/02/28 00:01:53;;;;;;;1.33;0.98;;;26.30;55.20;;;;;;5112375;28;20112;-56
2024/02/28 00:04:20;;;;;;;1.55;0.50;;;26.40;54.80;;;;;;5112674;28;20060;-54
2024/02/28 00:06:46;;;;;;;2.80;0.75;;;26.40;54.90;;;;;;5110649;28;20068;-54
2024/02/28 00:09:15;;;;;;;7.60;0.73;;;26.50;55.00;;;;;;5105968;28;20191;-53
2024/02/28 00:11:46;;;;;;;1.00;0.50;;;26.20;55.20;;;;;;5110443;28;20076;-53
2024/02/28 00:14:13;;;;;;;2.25;0.60;;;26.30;55.30;;;;;;5108202;28;20113;-54
2024/02/28 00:16:47;;;;;;;1.58;0.47;;;26.30;55.00;;;;;;5095469;28;20286;-54
2024/02/28 00:19:14;;;;;;;2.70;1.00;;;26.20;54.90;;;;;;5105952;27;20080;-53
2024/02/28 00:21:41;;;;;;;1.52;0.60;;;26.00;55.30;;;;;;5100203;28;20084;-54
2024/02/28 00:24:08;;;;;;;1.63;0.65;;;25.80;55.40;;;;;;5109847;28;20095;-52
2024/02/28 00:26:34;;;;;;;2.05;0.52;;;25.70;56.00;;;;;;5112041;28;20147;-52
2024/02/28 00:29:01;;;;;;;12.65;1.08;;;25.50;56.20;;;;;;5112157;28;20137;-52
2024/02/28 00:31:27;;;;;;;2.17;0.70;;;25.50;56.20;;;;;;5112126;28;20096;-50
2024/02/28 00:33:54;;;;;;;4.40;0.65;;;25.40;55.90;;;;;;5111939;28;20068;-53
2024/02/28 00:36:20;;;;;;;2.67;0.68;;;25.30;56.20;;;;;;5109624;28;20100;-51
2024/02/28 00:38:47;;;;;;;5.45;0.98;;;25.20;56.10;;;;;;5106487;28;20064;-52
2024/02/28 00:41:13;;;;;;;11.82;1.20;;;25.20;56.40;;;;;;5112104;27;20165;-52
2024/02/28 00:43:40;;;;;;;4.97;0.82;;;25.20;56.60;;;;;;5109769;28;20072;-51
2024/02/28 00:46:11;;;;;;;5.68;0.82;;;25.10;56.50;;;;;;5112170;28;20072;-52
2024/02/28 00:48:40;;;;;;;9.65;1.15;;;25.10;56.40;;;;;;5112418;28;20167;-51
2024/02/28 00:51:10;;;;;;;3.38;0.95;;;25.00;56.30;;;;;;5106765;28;20113;-50
2024/02/28 00:53:37;;;;;;;3.92;0.75;;;24.80;56.50;;;;;;5109525;28;20132;-53
2024/02/28 00:56:03;;;;;;;6.00;0.80;;;24.70;56.70;;;;;;5108850;28;20219;-51
2024/02/28 00:58:30;;;;;;;2.42;0.77;;;24.60;56.80;;;;;;5103366;28;20094;-50
2024/02/28 01:00:57;;;;;;;6.82;1.33;;;24.50;56.90;;;;;;5107333;28;20076;-53
2024/02/28 01:03:23;;;;;;;1.38;0.65;;;24.40;57.00;;;;;;5105030;28;20065;-52
2024/02/28 01:05:51;;;;;;;2.15;0.80;;;24.30;57.00;;;;;;5094955;28;20075;-53
2024/02/28 01:08:17;;;;;;;2.33;0.90;;;24.30;57.00;;;;;;5106920;28;20083;-53
2024/02/28 01:10:45;;;;;;;3.08;1.00;;;24.20;57.20;;;;;;5108579;28;20066;-52
2024/02/28 01:13:11;;;;;;;3.33;0.80;;;24.20;57.50;;;;;;5106857;28;20510;-52
2024/02/28 01:15:41;;;;;;;2.42;0.70;;;24.10;57.40;;;;;;5111710;28;20115;-54
2024/02/28 01:18:08;;;;;;;3.08;0.85;;;24.00;57.50;;;;;;5111622;28;20425;-50
2024/02/28 01:20:35;;;;;;;9.70;1.00;;;24.00;58.00;;;;;;5113359;27;20064;-50
2024/02/28 01:23:01;;;;;;;7.03;1.05;;;23.80;58.50;;;;;;5114325;28;20072;-52
2024/02/28 01:25:28;;;;;;;7.22;1.20;;;23.80;58.90;;;;;;5112107;28;20094;-51
2024/02/28 01:27:59;;;;;;;8.48;1.10;;;23.70;59.20;;;;;;5099710;28;20152;-51
2024/02/28 01:30:26;;;;;;;5.10;1.08;;;23.60;60.40;;;;;;5112631;28;20071;-48
2024/02/28 01:32:53;;;;;;;28.42;14.63;;;23.50;61.00;;;;;;5115292;28;20071;-52
2024/02/28 01:35:19;;;;;;;27.33;17.63;;;23.40;61.10;;;;;;5110271;27;20123;-53
2024/02/28 01:37:46;;;;;;;10.52;1.20;;;23.40;61.20;;;;;;5106602;28;20072;-52
2024/02/28 01:40:13;;;;;;;10.00;1.20;;;23.30;62.00;;;;;;5101795;27;20201;-53
2024/02/28 01:42:39;;;;;;;10.70;1.67;;;23.10;61.90;;;;;;5106938;28;20080;-52
2024/02/28 01:45:08;;;;;;;9.90;1.20;;;23.10;61.90;;;;;;5110593;28;20078;-50
2024/02/28 01:47:35;;;;;;;18.50;2.03;;;22.90;62.50;;;;;;5110975;28;20509;-53
2024/02/28 01:50:02;;;;;;;13.20;1.73;;;22.90;62.50;;;;;;5110902;28;20068;-53
2024/02/28 01:52:28;;;;;;;9.75;1.65;;;22.80;63.20;;;;;;5109439;28;20072;-54
2024/02/28 01:54:55;;;;;;;20.17;2.65;;;22.70;63.50;;;;;;5099676;28;20068;-52
2024/02/28 01:57:22;;;;;;;13.75;2.33;;;22.60;64.00;;;;;;5102887;28;20100;-53
2024/02/28 01:59:48;;;;;;;15.52;2.47;;;22.60;63.90;;;;;;5102589;28;20068;-55
2024/02/28 02:02:15;;;;;;;14.75;2.25;;;22.50;64.40;;;;;;5109587;28;20198;-50
2024/02/28 02:04:41;;;;;;;10.98;1.67;;;22.40;64.80;;;;;;5110951;28;20727;-54
2024/02/28 02:07:08;;;;;;;14.80;1.45;;;22.40;65.30;;;;;;5106647;28;20071;-54
2024/02/28 02:09:35;;;;;;;13.02;1.65;;;22.30;65.20;;;;;;5111036;28;20423;-54
2024/02/28 02:12:01;;;;;;;12.30;2.22;;;22.20;65.50;;;;;;5105730;28;20180;-53
2024/02/28 02:14:28;;;;;;;13.43;1.80;;;22.20;65.60;;;;;;5108062;28;20103;-54
2024/02/28 02:16:55;;;;;;;56.40;37.65;;;22.20;65.70;;;;;;5114257;28;20108;-54
2024/02/28 02:19:22;;;;;;;55.17;37.35;;;22.00;66.30;;;;;;5111973;28;20071;-54
2024/02/28 02:21:54;;;;;;;31.13;18.52;;;21.90;66.80;;;;;;5105125;28;20487;-53
2024/02/28 02:24:21;;;;;;;36.90;19.20;;;21.90;67.10;;;;;;5103469;28;20101;-54
2024/02/28 02:26:47;;;;;;;29.77;7.60;;;21.80;67.60;;;;;;5099421;28;20069;-58
2024/02/28 02:29:14;;;;;;;27.50;4.38;;;21.80;67.90;;;;;;5105721;27;20638;-51
2024/02/28 02:31:40;;;;;;;15.30;3.20;;;21.70;67.90;;;;;;5104862;28;20072;-55
2024/02/28 02:34:07;;;;;;;19.73;3.15;;;21.60;68.50;;;;;;5104141;28;20082;-54
2024/02/28 02:36:33;;;;;;;27.90;3.03;;;21.50;69.10;;;;;;5103630;27;20097;-54
2024/02/28 02:39:00;;;;;;;19.13;3.05;;;21.40;69.20;;;;;;5104985;28;20641;-53
2024/02/28 02:41:27;;;;;;;25.50;3.20;;;21.40;69.50;;;;;;5099792;28;20064;-53
2024/02/28 02:43:53;;;;;;;25.63;3.58;;;21.30;70.20;;;;;;5105823;28;20159;-54
2024/02/28 02:46:19;;;;;;;19.13;4.35;;;21.20;69.90;;;;;;5105846;28;20098;-52
2024/02/28 02:48:46;;;;;;;18.08;3.92;;;21.20;70.40;;;;;;5101813;28;20157;-53
2024/02/28 02:51:12;;;;;;;19.02;4.47;;;21.10;71.10;;;;;;5102143;27;20083;-54
2024/02/28 02:53:39;;;;;;;24.67;5.10;;;21.00;71.00;;;;;;5103203;28;20409;-54
2024/02/28 02:56:06;;;;;;;35.90;4.25;;;21.00;71.20;;;;;;5102312;27;20202;-51
2024/02/28 02:58:32;;;;;;;28.30;4.25;;;21.00;71.40;;;;;;5102275;27;20064;-53
2024/02/28 03:00:58;;;;;;;40.30;4.50;;;21.10;71.70;;;;;;5102925;28;20195;-56
2024/02/28 03:03:25;;;;;;;23.30;5.50;;;21.00;72.40;;;;;;5101041;27;20076;-54
2024/02/28 03:05:52;;;;;;;37.60;5.43;;;21.00;72.20;;;;;;5100442;28;20076;-54
2024/02/28 03:08:18;;;;;;;25.33;4.80;;;20.90;71.80;;;;;;5104729;28;20085;-52
2024/02/28 03:10:45;;;;;;;28.88;4.60;;;20.80;72.40;;;;;;5103766;27;20176;-49
2024/02/28 03:13:11;;;;;;;28.73;5.40;;;20.80;72.90;;;;;;5102582;28;20124;-51
2024/02/28 03:15:38;;;;;;;38.28;5.93;;;20.70;73.30;;;;;;5102884;28;20116;-54
2024/02/28 03:18:05;;;;;;;26.13;5.55;;;20.80;72.40;;;;;;5103079;27;20064;-54
2024/02/28 03:20:31;;;;;;;18.98;4.63;;;20.80;72.80;;;;;;5102896;27;20091;-51
2024/02/28 03:22:57;;;;;;;39.45;5.43;;;20.60;73.00;;;;;;5104623;28;20133;-56
2024/02/28 03:25:24;;;;;;;25.25;4.82;;;20.60;73.00;;;;;;5099708;28;20380;-51
2024/02/28 03:27:51;;;;;;;26.42;4.25;;;20.50;73.20;;;;;;5108242;28;20068;-50
2024/02/28 03:30:18;;;;;;;21.25;4.95;;;20.50;73.20;;;;;;5108111;27;20076;-49
2024/02/28 03:32:44;;;;;;;21.95;4.10;;;20.50;73.30;;;;;;5102334;28;20072;-55
2024/02/28 03:35:11;;;;;;;26.88;5.22;;;20.40;73.40;;;;;;5105600;28;20072;-50
2024/02/28 03:37:37;;;;;;;17.67;3.80;;;20.40;73.60;;;;;;5108290;28;20565;-53
2024/02/28 03:40:04;;;;;;;31.23;4.47;;;20.30;74.20;;;;;;5107329;28;20517;-49
2024/02/28 03:42:30;;;;;;;21.80;3.67;;;20.30;73.40;;;;;;5108894;28;20079;-53
2024/02/28 03:44:57;;;;;;;17.05;2.20;;;20.40;73.10;;;;;;5104771;28;20065;-54
2024/02/28 03:47:24;;;;;;;17.48;3.30;;;20.40;72.70;;;;;;5104016;28;20068;-52
2024/02/28 03:49:51;;;;;;;21.48;3.33;;;20.40;72.00;;;;;;5101304;28;20074;-56
2024/02/28 03:52:17;;;;;;;17.95;2.83;;;20.40;72.50;;;;;;5104922;28;20164;-54
2024/02/28 03:54:44;;;;;;;14.63;3.42;;;20.40;72.70;;;;;;5109920;28;20517;-52
2024/02/28 03:57:11;;;;;;;14.80;2.65;;;20.30;72.40;;;;;;5104181;28;20491;-56
2024/02/28 03:59:37;;;;;;;10.43;2.70;;;20.20;72.60;;;;;;5105681;28;20064;-52
2024/02/28 04:02:04;;;;;;;19.60;3.20;;;20.10;72.50;;;;;;5106498;28;20132;-54
2024/02/28 04:04:30;;;;;;;21.65;3.53;;;20.10;72.60;;;;;;5108458;28;20174;-54
2024/02/28 04:06:57;;;;;;;16.48;3.50;;;20.10;73.40;;;;;;5108168;28;20121;-51
2024/02/28 04:09:23;;;;;;;26.80;3.65;;;20.10;73.40;;;;;;5108199;28;20079;-54
2024/02/28 04:11:51;;;;;;;20.98;3.33;;;20.10;73.10;;;;;;5102667;28;20091;-56
2024/02/28 04:14:17;;;;;;;18.50;3.20;;;20.10;73.00;;;;;;5107436;28;20080;-54
2024/02/28 04:16:44;;;;;;;25.45;3.50;;;20.00;73.00;;;;;;5104527;27;20178;-51
2024/02/28 04:19:11;;;;;;;28.63;3.55;;;19.90;73.70;;;;;;5099436;28;20072;-59
2024/02/28 04:21:38;;;;;;;21.17;3.70;;;20.90;72.60;;;;;;5107610;28;20541;-56
2024/02/28 04:24:09;;;;;;;20.77;4.65;;;22.10;69.40;;;;;;5106032;28;20487;-51
2024/02/28 04:26:35;;;;;;;26.77;4.35;;;22.60;67.00;;;;;;5108579;28;20096;-49
2024/02/28 04:29:07;;;;;;;31.80;4.13;;;22.70;66.70;;;;;;5103607;28;20060;-51
2024/02/28 04:31:34;;;;;;;19.95;3.60;;;22.70;66.70;;;;;;5094601;28;20080;-52
2024/02/28 04:34:00;;;;;;;17.48;3.78;;;22.70;67.20;;;;;;5100587;28;20518;-48
2024/02/28 04:36:27;;;;;;;25.52;3.95;;;22.60;66.70;;;;;;5102115;28;20096;-49
2024/02/28 04:38:53;;;;;;;29.23;4.03;;;22.40;66.90;;;;;;5106797;28;20064;-52
2024/02/28 04:41:20;;;;;;;24.52;3.47;;;22.30;67.70;;;;;;5095088;28;20099;-49
2024/02/28 04:43:46;;;;;;;32.30;4.57;;;22.10;68.60;;;;;;5105243;28;20080;-53
2024/02/28 04:46:13;;;;;;;19.10;3.53;;;22.40;68.10;;;;;;5105407;28;20072;-48
2024/02/28 04:48:39;;;;;;;30.33;4.07;;;22.30;67.60;;;;;;5105697;28;20094;-50
2024/02/28 04:51:06;;;;;;;21.70;3.65;;;22.10;67.20;;;;;;5107174;28;20084;-50
2024/02/28 04:53:32;;;;;;;27.00;3.50;;;22.00;68.90;;;;;;5100067;28;20088;-48
2024/02/28 04:55:59;;;;;;;35.05;4.75;;;21.90;68.30;;;;;;5106654;28;20183;-53
2024/02/28 04:58:26;;;;;;;20.25;4.07;;;21.80;68.60;;;;;;5103734;28;21622;-50
2024/02/28 05:00:52;;;;;;;19.90;4.18;;;21.90;68.80;;;;;;5110325;28;20068;-50
2024/02/28 05:03:19;;;;;;;21.08;4.53;;;21.80;69.30;;;;;;5104132;28;20069;-50
2024/02/28 05:05:45;;;;;;;23.88;4.55;;;21.60;69.60;;;;;;5104066;28;20674;-53
2024/02/28 05:08:11;;;;;;;18.40;3.35;;;21.60;68.90;;;;;;5108108;28;20104;-51
2024/02/28 05:10:40;;;;;;;30.25;3.67;;;21.60;69.10;;;;;;5105406;28;20068;-58
2024/02/28 05:13:06;;;;;;;13.40;3.35;;;21.50;69.80;;;;;;5108751;27;20080;-54
2024/02/28 05:15:33;;;;;;;24.80;3.50;;;21.50;69.80;;;;;;5105160;28;20207;-51
2024/02/28 05:17:59;;;;;;;18.67;3.10;;;21.50;69.40;;;;;;5104502;28;20084;-53
2024/02/28 05:20:25;;;;;;;27.85;3.42;;;21.40;69.50;;;;;;5111137;28;20075;-50
2024/02/28 05:22:52;;;;;;;13.23;2.88;;;21.30;70.10;;;;;;5102955;27;20088;-52
2024/02/28 05:25:19;;;;;;;27.85;3.50;;;21.30;70.40;;;;;;5104610;27;20067;-52
2024/02/28 05:27:45;;;;;;;25.92;3.90;;;21.20;71.20;;;;;;5100986;28;20470;-51
2024/02/28 05:30:12;;;;;;;21.25;3.67;;;21.00;71.30;;;;;;5109733;28;20486;-53
2024/02/28 05:32:39;;;;;;;33.33;4.60;;;21.00;71.10;;;;;;5100793;28;20465;-52
2024/02/28 05:35:05;;;;;;;21.65;3.47;;;21.10;71.00;;;;;;5108115;28;20110;-50
2024/02/28 05:37:32;;;;;;;18.38;4.38;;;21.00;71.00;;;;;;5110452;28;20104;-50
2024/02/28 05:39:59;;;;;;;23.52;4.28;;;20.90;71.20;;;;;;5111401;28;20429;-55
2024/02/28 05:42:25;;;;;;;28.92;4.57;;;20.70;72.40;;;;;;5109499;28;20399;-54
2024/02/28 05:44:52;;;;;;;26.40;4.03;;;20.60;73.40;;;;;;5110405;28;20131;-48
2024/02/28 05:47:18;;;;;;;25.90;3.90;;;20.70;72.80;;;;;;5110092;28;20163;-50
2024/02/28 05:49:45;;;;;;;28.13;4.03;;;20.70;72.30;;;;;;5114284;28;20111;-52
2024/02/28 05:52:11;;;;;;;28.08;4.15;;;20.80;72.80;;;;;;5108973;28;20141;-58
2024/02/28 05:54:38;;;;;;;36.40;4.28;;;20.60;73.00;;;;;;5114584;28;20525;-52
2024/02/28 05:57:04;;;;;;;28.13;4.85;;;20.60;73.50;;;;;;5109655;28;20145;-55
2024/02/28 05:59:31;;;;;;;28.83;3.97;;;20.60;74.00;;;;;;5111107;28;20585;-47
2024/02/28 06:01:57;;;;;;;27.30;3.70;;;20.50;73.70;;;;;;5106692;28;20514;-49
2024/02/28 06:04:24;;;;;;;26.23;3.53;;;20.40;73.40;;;;;;5102648;28;20104;-52
2024/02/28 06:06:51;;;;;;;32.83;3.92;;;20.20;73.90;;;;;;5105642;28;20090;-55
2024/02/28 06:09:17;;;;;;;29.15;4.30;;;20.20;74.70;;;;;;5109955;28;20143;-48
2024/02/28 06:11:44;;;;;;;27.90;3.97;;;20.10;75.00;;;;;;5111593;28;20071;-51
2024/02/28 06:14:10;;;;;;;21.17;4.50;;;20.10;75.60;;;;;;5107374;28;20166;-50
2024/02/28 06:16:37;;;;;;;34.90;4.03;;;20.00;75.70;;;;;;5104477;28;20109;-51
2024/02/28 06:19:03;;;;;;;30.90;4.18;;;20.10;75.50;;;;;;5092616;28;20077;-50
2024/02/28 06:21:30;;;;;;;23.30;5.35;;;20.10;76.20;;;;;;5097640;28;20155;-49
2024/02/28 06:23:57;;;;;;;30.73;5.57;;;20.10;76.40;;;;;;5110828;28;20102;-50
2024/02/28 06:26:24;;;;;;;23.15;4.80;;;20.00;76.20;;;;;;5100002;28;20110;-49
2024/02/28 06:28:51;;;;;;;23.00;4.97;;;20.00;76.70;;;;;;5101211;28;20072;-54
2024/02/28 06:31:19;;;;;;;33.08;16.63;;;19.90;76.60;;;;;;5105834;28;20076;-52
2024/02/28 06:33:46;;;;;;;35.35;12.98;;;19.90;76.80;;;;;;5105990;28;20537;-50
2024/02/28 06:36:12;;;;;;;36.90;15.90;;;20.00;76.60;;;;;;5097226;28;20166;-51
2024/02/28 06:38:39;;;;;;;29.80;6.25;;;20.10;76.10;;;;;;5102979;28;20068;-53
2024/02/28 06:41:05;;;;;;;23.88;4.53;;;20.00;75.80;;;;;;5108424;28;20124;-49
2024/02/28 06:43:35;;;;;;;20.17;4.28;;;20.00;75.70;;;;;;5103051;28;20128;-50
2024/02/28 06:46:02;;;;;;;25.65;4.18;;;20.10;75.80;;;;;;5102432;28;20577;-49
2024/02/28 06:48:29;;;;;;;11.40;3.28;;;20.10;75.60;;;;;;5110171;28;20064;-51
2024/02/28 06:50:57;;;;;;;26.75;4.20;;;19.90;75.70;;;;;;5095326;28;20064;-53
2024/02/28 06:53:26;;;;;;;23.92;4.10;;;19.90;76.10;;;;;;5106474;28;20075;-52
2024/02/28 06:55:52;;;;;;;20.30;4.68;;;19.90;76.60;;;;;;5100702;28;20200;-50
2024/02/28 06:58:19;;;;;;;23.75;4.85;;;19.90;76.40;;;;;;5109210;28;20510;-54
2024/02/28 07:00:46;;;;;;;25.25;4.18;;;19.90;76.70;;;;;;5098015;28;20118;-52
2024/02/28 07:03:12;;;;;;;39.47;21.10;;;19.90;76.20;;;;;;5107762;28;20068;-52
2024/02/28 07:05:39;;;;;;;25.73;5.65;;;19.70;76.20;;;;;;5108401;27;20070;-52
2024/02/28 07:08:06;;;;;;;34.95;5.53;;;19.70;76.80;;;;;;5104261;28;20060;-52
2024/02/28 07:10:34;;;;;;;23.63;4.95;;;19.60;76.90;;;;;;5104559;28;20100;-49
2024/02/28 07:13:00;;;;;;;17.17;5.20;;;19.70;77.00;;;;;;5098792;28;21688;-53
2024/02/28 07:15:27;;;;;;;18.67;5.40;;;19.60;77.00;;;;;;5090483;28;20522;-50
2024/02/28 07:17:54;;;;;;;26.17;5.10;;;19.50;77.30;;;;;;5109809;28;20064;-52
2024/02/28 07:20:21;;;;;;;15.93;5.13;;;19.40;77.50;;;;;;5101373;28;20090;-52
2024/02/28 07:22:47;;;;;;;21.70;5.60;;;19.30;77.60;;;;;;5104218;28;20489;-52
2024/02/28 07:25:14;;;;;;;18.77;5.15;;;19.30;78.00;;;;;;5107103;28;20068;-53
2024/02/28 07:27:41;;;;;;;21.75;5.80;;;19.30;78.20;;;;;;5106813;28;20121;-53
2024/02/28 07:30:08;;;;;;;17.42;5.88;;;19.50;77.90;;;;;;5105509;27;20086;-52
2024/02/28 07:32:34;;;;;;;18.35;6.07;;;19.40;77.80;;;;;;5099809;28;20167;-49
2024/02/28 07:35:04;;;;;;;17.55;6.10;;;19.40;78.20;;;;;;5107668;28;20113;-49
2024/02/28 07:37:30;;;;;;;14.80;5.28;;;19.30;78.00;;;;;;5109642;28;20182;-51
2024/02/28 07:39:57;;;;;;;16.67;5.63;;;19.20;78.00;;;;;;5107816;28;20072;-50
2024/02/28 07:42:23;;;;;;;15.57;4.53;;;19.20;77.90;;;;;;5098138;28;20087;-52
2024/02/28 07:44:53;;;;;;;15.73;4.75;;;19.20;78.10;;;;;;5101890;28;20151;-50
2024/02/28 07:47:20;;;;;;;10.80;3.90;;;19.20;78.60;;;;;;5106802;28;20072;-50
2024/02/28 07:49:47;;;;;;;11.98;4.05;;;19.20;77.90;;;;;;5097023;28;20140;-49
2024/02/28 07:52:13;;;;;;;9.57;3.22;;;19.20;77.80;;;;;;5100181;28;20077;-52
2024/02/28 07:54:43;;;;;;;10.77;2.97;;;19.20;78.00;;;;;;5109964;28;20066;-51
2024/02/28 07:57:09;;;;;;;17.77;4.03;;;19.20;77.90;;;;;;5108133;28;20206;-49
2024/02/28 07:59:43;;;;;;;7.32;3.05;;;19.10;78.10;;;;;;5100575;28;20159;-52
2024/02/28 08:02:13;;;;;;;9.50;3.38;;;19.10;78.30;;;;;;5105982;28;20111;-51
2024/02/28 08:04:40;;;;;;;8.85;2.80;;;19.20;78.30;;;;;;5102146;28;20102;-49
2024/02/28 08:07:08;;;;;;;10.43;2.85;;;19.10;78.40;;;;;;5100491;28;20068;-52
2024/02/28 08:09:35;;;;;;;15.30;3.10;;;19.10;78.50;;;;;;5089651;28;20075;-48
2024/02/28 08:12:01;;;;;;;11.85;3.13;;;19.10;78.60;;;;;;5108150;28;20090;-52
2024/02/28 08:14:28;;;;;;;12.52;3.08;;;19.00;79.00;;;;;;5108498;28;20124;-49
2024/02/28 08:16:55;;;;;;;12.40;3.35;;;19.00;79.10;;;;;;5108009;28;20096;-52
2024/02/28 08:19:21;;;;;;;15.25;3.50;;;19.00;79.10;;;;;;5108334;28;20072;-50
2024/02/28 08:21:48;;;;;;;7.85;3.40;;;19.00;78.90;;;;;;5094448;28;20079;-50
2024/02/28 08:24:14;;;;;;;8.00;3.03;;;18.90;79.00;;;;;;5107131;28;20074;-48
2024/02/28 08:26:41;;;;;;;7.97;2.78;;;18.90;79.20;;;;;;5100961;28;20455;-48
2024/02/28 08:29:08;;;;;;;9.63;3.20;;;18.80;79.40;;;;;;5089899;28;20418;-48
2024/02/28 08:31:44;;;;;;;11.13;2.22;;;18.80;79.80;;;;;;5092976;28;20072;-49
2024/02/28 08:34:10;;;;;;;10.38;1.80;;;18.80;79.30;;;;;;5095640;28;20068;-48
2024/02/28 08:36:37;;;;;;;4.13;1.60;;;18.80;79.70;;;;;;5109021;28;20107;-50
2024/02/28 08:39:04;;;;;;;4.72;1.40;;;18.70;79.90;;;;;;5107594;28;20406;-55
2024/02/28 08:41:33;;;;;;;5.22;1.70;;;18.70;79.90;;;;;;5104565;28;20094;-49
2024/02/28 08:44:00;;;;;;;6.63;1.50;;;18.70;80.00;;;;;;5106990;28;20508;-51
2024/02/28 08:46:26;;;;;;;6.80;1.52;;;18.70;80.10;;;;;;5108641;28;20510;-49
2024/02/28 08:48:53;;;;;;;3.45;1.35;;;18.70;80.20;;;;;;5101356;28;20507;-51
2024/02/28 08:51:19;;;;;;;6.35;1.48;;;18.60;80.20;;;;;;5099965;28;20098;-55
2024/02/28 08:53:46;;;;;;;5.68;1.60;;;18.60;80.50;;;;;;5094402;28;20073;-50
2024/02/28 08:56:12;;;;;;;3.50;1.65;;;18.60;80.60;;;;;;5094337;28;20100;-48
2024/02/28 08:58:40;;;;;;;2.50;1.40;;;18.50;81.30;;;;;;5103604;28;20072;-49
2024/02/28 09:01:07;;;;;;;4.20;1.25;;;18.50;80.60;;;;;;5102842;28;20627;-51
2024/02/28 09:03:34;;;;;;;6.20;1.23;;;18.50;80.90;;;;;;5106219;28;20441;-52
2024/02/28 09:06:00;;;;;;;3.28;1.35;;;18.60;81.10;;;;;;5107583;28;20076;-52
2024/02/28 09:08:27;;;;;;;4.32;1.38;;;18.50;81.60;;;;;;5107872;28;20494;-48
2024/02/28 09:10:53;;;;;;;6.30;1.35;;;18.60;81.40;;;;;;5098776;28;20090;-49
2024/02/28 09:13:20;;;;;;;4.70;1.48;;;18.50;81.60;;;;;;5104736;28;20069;-51
2024/02/28 09:15:46;;;;;;;4.00;1.30;;;18.40;82.00;;;;;;5108532;28;20120;-49
2024/02/28 09:18:13;;;;;;;4.30;1.60;;;18.20;82.40;;;;;;5106332;28;20078;-52
2024/02/28 09:20:39;;;;;;;3.95;1.33;;;18.20;82.40;;;;;;5104281;28;20073;-53
2024/02/28 09:23:06;;;;;;;3.22;1.40;;;18.10;82.50;;;;;;5107278;28;20099;-53
2024/02/28 09:25:35;;;;;;;4.03;1.67;;;18.10;82.70;;;;;;5095264;28;20076;-49
2024/02/28 09:28:02;;;;;;;3.30;1.15;;;18.10;82.70;;;;;;5102367;28;20060;-50
2024/02/28 09:30:29;;;;;;;3.85;1.42;;;18.10;82.50;;;;;;5106775;28;20078;-49
2024/02/28 09:32:55;;;;;;;4.97;1.52;;;18.00;82.50;;;;;;5102604;28;20085;-56
2024/02/28 09:35:21;;;;;;;3.30;1.60;;;18.00;83.20;;;;;;5107004;28;20068;-51
2024/02/28 09:37:48;;;;;;;7.35;1.67;;;17.90;83.30;;;;;;5105965;28;20068;-54
2024/02/28 09:40:15;;;;;;;5.22;1.50;;;17.90;83.70;;;;;;5103026;28;20072;-53
2024/02/28 09:42:41;;;;;;;5.93;1.33;;;17.90;84.00;;;;;;5110893;28;20064;-53
2024/02/28 09:45:12;;;;;;;6.43;1.50;;;17.80;84.10;;;;;;5109040;28;20173;-51
2024/02/28 09:47:39;;;;;;;4.07;1.40;;;17.80;84.40;;;;;;5100381;28;20084;-53
2024/02/28 09:50:07;;;;;;;11.30;1.83;;;17.80;84.50;;;;;;5101447;28;20156;-51
2024/02/28 09:52:35;;;;;;;3.92;1.20;;;17.80;84.90;;;;;;5109675;28;20075;-54
2024/02/28 09:55:01;;;;;;;5.35;1.70;;;17.90;85.10;;;;;;5108588;28;20087;-50
2024/02/28 09:57:29;;;;;;;6.45;1.67;;;18.00;84.70;;;;;;5105616;28;20560;-52
2024/02/28 10:00:00;;;;;;;5.22;1.30;;;18.00;84.70;;;;;;5104815;28;20068;-49
2024/02/28 10:02:28;;;;;;;7.68;1.90;;;18.00;84.40;;;;;;5107697;28;20079;-53
2024/02/28 10:05:00;;;;;;;3.53;1.40;;;18.00;84.50;;;;;;5112398;28;20163;-50
2024/02/28 10:07:27;;;;;;;6.40;1.70;;;18.10;84.60;;;;;;5107240;28;20455;-52
2024/02/28 10:09:54;;;;;;;5.68;1.55;;;18.00;84.70;;;;;;5109202;28;20064;-50
2024/02/28 10:12:21;;;;;;;5.18;1.70;;;17.90;84.80;;;;;;5108376;28;20064;-53
2024/02/28 10:14:51;;;;;;;5.95;1.73;;;17.80;85.30;;;;;;5111679;28;20153;-49
2024/02/28 10:17:17;;;;;;;3.80;1.70;;;17.80;85.60;;;;;;5106906;28;20450;-50
2024/02/28 10:19:44;;;;;;;6.63;1.55;;;17.70;85.80;;;;;;5101793;28;20487;-52
2024/02/28 10:22:10;;;;;;;7.72;2.25;;;17.60;86.20;;;;;;5108952;28;20125;-54
2024/02/28 10:24:40;;;;;;;8.70;1.73;;;17.60;86.80;;;;;;5105738;28;20072;-51
2024/02/28 10:27:06;;;;;;;3.42;1.55;;;17.60;87.20;;;;;;5100932;28;20076;-49
2024/02/28 10:29:33;;;;;;;3.65;1.40;;;17.60;87.30;;;;;;5092967;28;20581;-56
2024/02/28 10:32:00;;;;;;;9.13;1.48;;;17.60;87.50;;;;;;5094209;28;20095;-52
2024/02/28 10:34:26;;;;;;;5.72;1.42;;;17.60;87.20;;;;;;5096044;28;20157;-58
2024/02/28 10:36:53;;;;;;;5.80;1.42;;;17.60;87.40;;;;;;5109326;28;20096;-56
2024/02/28 10:39:21;;;;;;;3.70;1.52;;;17.50;87.40;;;;;;5101442;28;20529;-52
2024/02/28 10:41:48;;;;;;;2.65;1.60;;;17.60;87.50;;;;;;5109135;28;20079;-50
2024/02/28 10:44:17;;;;;;;2.25;1.15;;;17.50;87.40;;;;;;5109665;28;20530;-52
2024/02/28 10:46:48;;;;;;;4.10;1.10;;;17.50;87.40;;;;;;5099310;28;20076;-49
2024/02/28 10:49:15;;;;;;;5.28;1.35;;;17.50;87.60;;;;;;5109995;28;20156;-50
2024/02/28 10:51:48;;;;;;;21.65;16.35;;;17.50;87.80;;;;;;5103658;28;20072;-53
2024/02/28 10:54:16;;;;;;;17.33;12.32;;;17.40;87.80;;;;;;5102242;28;20073;-52
2024/02/28 10:56:43;;;;;;;5.22;1.40;;;17.40;87.90;;;;;;5096583;28;20507;-50
2024/02/28 10:59:12;;;;;;;3.28;1.35;;;17.40;88.80;;;;;;5110608;28;20417;-49
2024/02/28 11:01:44;;;;;;;3.22;1.05;;;17.30;88.20;;;;;;5095748;28;20080;-49
2024/02/28 11:04:12;;;;;;;5.45;1.27;;;17.30;88.20;;;;;;5105738;28;20468;-52
2024/02/28 11:06:52;;;;;;;4.35;1.38;;;17.30;88.40;;;;;;5109190;28;20068;-51
2024/02/28 11:09:28;;;;;;;2.38;1.25;;;17.30;88.60;;;;;;5100663;28;20408;-55
2024/02/28 11:11:55;;;;;;;9.07;1.60;;;17.20;88.90;;;;;;5099313;28;20072;-53
2024/02/28 11:14:25;;;;;;;3.22;1.35;;;17.20;88.90;;;;;;5110236;28;20154;-53
2024/02/28 11:17:05;;;;;;;1.58;1.13;;;17.20;89.10;;;;;;5109322;28;20096;-52
2024/02/28 11:19:33;;;;;;;2.65;1.45;;;17.20;89.40;;;;;;5109463;28;20175;-50
2024/02/28 11:22:00;;;;;;;2.47;1.30;;;17.20;89.10;;;;;;5108904;28;20079;-48
2024/02/28 11:24:32;;;;;;;1.52;1.10;;;17.20;89.50;;;;;;5095717;28;20072;-50
2024/02/28 11:26:58;;;;;;;2.03;1.05;;;17.10;89.60;;;;;;5106392;28;20076;-48
2024/02/28 11:29:25;;;;;;;5.10;1.38;;;17.10;89.60;;;;;;5103465;28;20076;-49
2024/02/28 11:31:53;;;;;;;5.05;1.30;;;17.20;89.80;;;;;;5109238;28;20075;-52
2024/02/28 11:34:20;;;;;;;3.63;1.38;;;17.30;89.90;;;;;;5109680;28;20158;-48
2024/02/28 11:36:50;;;;;;;4.07;1.67;;;17.30;89.80;;;;;;5106788;28;20491;-48
2024/02/28 11:39:18;;;;;;;10.88;1.80;;;17.30;89.80;;;;;;5109241;28;20419;-49
2024/02/28 11:41:48;;;;;;;4.32;1.50;;;17.40;89.90;;;;;;5108481;28;20068;-48
2024/02/28 11:44:16;;;;;;;4.68;1.70;;;17.50;88.70;;;;;;5101893;28;20077;-48
2024/02/28 11:46:47;;;;;;;4.88;2.25;;;17.60;88.60;;;;;;5105430;28;20095;-48
2024/02/28 11:49:14;;;;;;;7.15;2.78;;;17.70;88.60;;;;;;5106354;28;20429;-51
2024/02/28 11:51:44;;;;;;;4.97;2.55;;;17.70;88.20;;;;;;5102761;28;20064;-49
2024/02/28 11:54:11;;;;;;;7.05;2.75;;;17.70;88.30;;;;;;5102284;28;20115;-51
2024/02/28 11:56:39;;;;;;;5.88;2.60;;;17.70;87.20;;;;;;5102380;28;20103;-52
2024/02/28 11:59:06;;;;;;;9.60;1.85;;;17.70;87.20;;;;;;5107815;28;20121;-52
2024/02/28 12:01:46;;;;;;;5.13;1.98;;;17.70;86.80;;;;;;5108745;28;20068;-51
2024/02/28 12:04:13;;;;;;;5.85;2.05;;;17.70;86.80;;;;;;5093949;28;20522;-49
2024/02/28 12:06:40;;;;;;;7.80;1.70;;;17.80;87.30;;;;;;5108210;28;20079;-49
2024/02/28 12:09:11;;;;;;;2.97;2.00;;;17.80;87.20;;;;;;5107257;28;20103;-55
2024/02/28 12:11:39;;;;;;;4.00;2.00;;;17.80;86.50;;;;;;5106687;28;20065;-49
2024/02/28 12:14:09;;;;;;;4.13;1.70;;;17.70;86.60;;;;;;5098467;28;20068;-48
2024/02/28 12:16:39;;;;;;;3.17;1.65;;;17.70;86.30;;;;;;5104709;28;20110;-49
2024/02/28 12:19:09;;;;;;;4.85;1.35;;;17.70;86.50;;;;;;5099240;28;20267;-48
2024/02/28 12:21:38;;;;;;;4.28;1.70;;;17.70;86.70;;;;;;5107466;28;20475;-48
2024/02/28 12:24:12;;;;;;;3.90;1.60;;;17.60;86.80;;;;;;5103340;28;20072;-51
2024/02/28 12:26:39;;;;;;;3.85;1.83;;;17.60;87.00;;;;;;5095861;28;20365;-49
2024/02/28 12:29:06;;;;;;;4.18;1.50;;;17.60;87.60;;;;;;5101911;28;20155;-49
2024/02/28 12:31:33;;;;;;;3.90;1.83;;;17.50;87.60;;;;;;5100850;28;20501;-53
2024/02/28 12:33:59;;;;;;;2.95;1.45;;;17.50;87.50;;;;;;5101363;28;20238;-49
2024/02/28 12:36:26;;;;;;;3.85;1.52;;;17.40;87.80;;;;;;5109147;28;20100;-50
2024/02/28 12:38:53;;;;;;;4.85;1.77;;;17.40;88.00;;;;;;5106202;28;20154;-59
2024/02/28 12:41:19;;;;;;;2.83;1.42;;;17.40;89.10;;;;;;5102416;28;20071;-48